Frontera — V2GM3 — position and weather

sailwx.info

Track history (hours):
 
Tides and Currents Weather Stations Pressure Air Temp Water Temp Dewpoint Dewpoint Depression Visibility Wind Speed Wind Dir Waves Ship Positions

Frontera

Last reported at 2017-Nov-18 23:14 UTC. Time now 2017-Nov-21 06:27 UTC.
Position N 47°22' W 007°01'.

Length 106 m; draft 6.4 m.

Type: Cargo ship. MMSI: 305995000.

Date/timePositionNaut miles runAvg speedWind from/ knotsBaromVisibWave heightAir tempDewpointWater temp
2017-Nov-18 23:14N 47°22' W 007°01'310.1
2017-Nov-18 22:59N 47°24' W 006°59'610.5
2017-Nov-18 22:24N 47°30' W 006°55'910.9
2017-Nov-18 21:31N 47°38' W 006°48'010.8
2017-Nov-18 21:30N 47°38' W 006°48'611.2
2017-Nov-18 20:58N 47°43' W 006°44'511.1
2017-Nov-18 20:29N 47°48' W 006°39'611.2
2017-Nov-18 19:57N 47°53' W 006°35'511.2
2017-Nov-18 19:30N 47°57' W 006°31'610.9
2017-Nov-18 18:56N 48°03' W 006°27'510.7
2017-Nov-18 18:30N 48°07' W 006°23'40 9.2
2017-Nov-18 14:06N 48°43' W 005°55'4 8.6
2017-Nov-18 13:37N 48°46' W 005°52'2 8.9
2017-Nov-18 13:26N 48°48' W 005°51'6 9.1
2017-Nov-18 12:47N 48°53' W 005°47'1910.3
2017-Nov-18 10:55N 49°03' W 005°22'1211.4
2017-Nov-18 09:50N 49°09' W 005°06'911.4
2017-Nov-18 09:02N 49°14' W 004°53'1910.7
2017-Nov-18 07:17N 49°23' W 004°29'8 9.5
2017-Nov-18 06:26N 49°27' W 004°18'105 9.7
2017-Nov-17 19:37N 50°10' W 001°50'1 6.8
2017-Nov-17 19:27N 50°10' W 001°48'3 6.5
2017-Nov-17 19:00N 50°11' W 001°44'3 6.7
2017-Nov-17 18:30N 50°12' W 001°39'4 7.2
2017-Nov-17 17:59N 50°13' W 001°33'9310.9
2017-Nov-17 09:28N 50°42' E 000°46'1210.4
2017-Nov-17 08:20N 50°48' E 001°02'1511.1
2017-Nov-17 06:58N 50°57' E 001°21'613.7
2017-Nov-17 06:30N 51°01' E 001°28'813.8
2017-Nov-17 05:53N 51°07' E 001°38'513.2
2017-Nov-17 05:30N 51°11' E 001°43'612.6
2017-Nov-17 05:00N 51°16' E 001°50'611.5
2017-Nov-17 04:29N 51°21' E 001°55'510.8
2017-Nov-17 03:59N 51°25' E 001°59'510.1
2017-Nov-17 03:29N 51°29' E 002°04'5 9.6
2017-Nov-17 03:00N 51°33' E 002°09'5 9.3
2017-Nov-17 02:30N 51°36' E 002°14'249 9.2
2017-Nov-15 23:18N 54°02' E 007°50'310.2
2017-Nov-15 23:01N 54°01' E 007°55'510.1
2017-Nov-15 22:30N 54°01' E 008°03'5 9.8
2017-Nov-15 22:00N 54°00' E 008°12'4 8.4
2017-Nov-15 21:30N 53°60' E 008°19'5 9.1
2017-Nov-15 21:01N 53°59' E 008°26'4 8.0
2017-Nov-15 20:30N 53°58' E 008°33'4 7.1
2017-Nov-15 20:00N 53°57' E 008°39'3 6.6
2017-Nov-15 19:30N 53°54' E 008°42'4 7.5
2017-Nov-15 19:00N 53°51' E 008°46'4 9.1
2017-Nov-15 18:30N 53°51' E 008°53'510.6
2017-Nov-15 18:00N 53°52' E 009°02'510.9
2017-Nov-15 17:30N 53°53' E 009°11'611.3
2017-Nov-15 17:01N 53°51' E 009°20'612.5
2017-Nov-15 16:31N 53°45' E 009°25'611.8
2017-Nov-15 16:01N 53°40' E 009°31'612.0
2017-Nov-15 15:31N 53°35' E 009°37'612.3
2017-Nov-15 15:01N 53°34' E 009°46'4 9.0
2017-Nov-15 14:31N 53°32' E 009°53'1 1.0
2017-Nov-15 14:00N 53°31' E 009°54'0 0.3
2017-Nov-15 13:30N 53°31' E 009°54'0 0.0
2017-Nov-15 13:00N 53°31' E 009°54'0 0.0
2017-Nov-15 12:30N 53°31' E 009°54'0 0.0
2017-Nov-15 12:00N 53°31' E 009°54'0 0.0
2017-Nov-15 11:30N 53°31' E 009°54'0 0.0
2017-Nov-15 11:00N 53°31' E 009°54'0 0.0
2017-Nov-15 10:30N 53°31' E 009°54'0 0.0
2017-Nov-15 10:00N 53°31' E 009°54'0 0.0
2017-Nov-15 09:30N 53°31' E 009°54'0 0.0
2017-Nov-15 09:00N 53°31' E 009°54'0 0.0
2017-Nov-15 08:30N 53°31' E 009°54'0 0.0
2017-Nov-15 08:00N 53°31' E 009°54'0 0.0
2017-Nov-15 07:27N 53°31' E 009°54'0 0.0
2017-Nov-15 07:00N 53°31' E 009°54'0 0.0
2017-Nov-15 06:30N 53°31' E 009°54'0 0.0
2017-Nov-15 06:00N 53°31' E 009°54'0 0.0
2017-Nov-15 05:30N 53°31' E 009°54'0 0.0
2017-Nov-15 05:00N 53°31' E 009°54'0 0.0
2017-Nov-15 04:30N 53°31' E 009°54'0 0.0
2017-Nov-15 04:00N 53°31' E 009°54'0 0.0
2017-Nov-15 03:30N 53°31' E 009°54'0 0.0
2017-Nov-15 03:00N 53°31' E 009°54'0 0.0
2017-Nov-15 02:30N 53°31' E 009°54'0 0.0
2017-Nov-15 02:00N 53°31' E 009°54'0 0.0
2017-Nov-15 01:30N 53°31' E 009°54'0 0.0
2017-Nov-15 01:00N 53°31' E 009°54'0 0.0
2017-Nov-15 00:30N 53°31' E 009°54'0 0.0
2017-Nov-15 00:00N 53°31' E 009°54'0 0.0
2017-Nov-14 23:30N 53°31' E 009°54'0 0.0
2017-Nov-14 23:00N 53°31' E 009°54'0 0.0
2017-Nov-14 22:30N 53°31' E 009°54'0 0.0
2017-Nov-14 22:00N 53°31' E 009°54'0 0.0
2017-Nov-14 21:30N 53°31' E 009°54'0 0.0
2017-Nov-14 21:00N 53°31' E 009°54'0 0.0
2017-Nov-14 20:30N 53°31' E 009°54'0 0.0
2017-Nov-14 20:00N 53°31' E 009°54'0 0.0
2017-Nov-14 19:30N 53°31' E 009°54'0 0.0
2017-Nov-14 19:00N 53°31' E 009°54'0 0.0
2017-Nov-14 18:30N 53°31' E 009°54'0 0.0
2017-Nov-14 18:00N 53°31' E 009°54'0 0.0
2017-Nov-14 17:30N 53°31' E 009°54'0 0.0
2017-Nov-14 17:00N 53°31' E 009°54'0 0.0
2017-Nov-14 16:30N 53°31' E 009°54'0 0.0
2017-Nov-14 16:00N 53°31' E 009°54'0 0.0
2017-Nov-14 15:30N 53°31' E 009°54'0 0.0
2017-Nov-14 15:00N 53°31' E 009°54'0 0.0
2017-Nov-14 14:30N 53°31' E 009°54'0 0.0
2017-Nov-14 14:00N 53°31' E 009°54'0 0.0
2017-Nov-14 13:30N 53°31' E 009°54'0 0.0
2017-Nov-14 13:00N 53°31' E 009°54'0 0.0
2017-Nov-14 12:30N 53°31' E 009°54'0 0.0
2017-Nov-14 12:00N 53°31' E 009°54'0 0.0
2017-Nov-14 11:30N 53°31' E 009°54'0 0.0
2017-Nov-14 11:00N 53°31' E 009°54'0 0.0
2017-Nov-14 10:30N 53°31' E 009°54'0 0.0
2017-Nov-14 10:00N 53°31' E 009°54'0 0.0
2017-Nov-14 09:30N 53°31' E 009°54'0 0.0
2017-Nov-14 09:00N 53°31' E 009°54'0 0.0
2017-Nov-14 08:30N 53°31' E 009°54'0 0.0
2017-Nov-14 08:00N 53°31' E 009°54'0 0.0
2017-Nov-14 07:30N 53°31' E 009°54'0 0.0
2017-Nov-14 07:00N 53°31' E 009°54'0 0.0
2017-Nov-14 06:29N 53°31' E 009°54'0 0.0
2017-Nov-14 06:00N 53°31' E 009°54'0 0.0
2017-Nov-14 05:29N 53°31' E 009°54'0 0.0
2017-Nov-14 05:00N 53°31' E 009°54'0 0.0
2017-Nov-14 04:29N 53°31' E 009°54'0 0.0
2017-Nov-14 03:59N 53°31' E 009°54'0 0.0
2017-Nov-14 03:30N 53°31' E 009°54'0 0.0
2017-Nov-14 02:59N 53°31' E 009°54'0 0.0
2017-Nov-14 02:30N 53°31' E 009°54'0 0.0
2017-Nov-14 01:59N 53°31' E 009°54'0 0.0
2017-Nov-14 01:30N 53°31' E 009°54'0 0.0
2017-Nov-14 00:59N 53°31' E 009°54'0 0.0
2017-Nov-14 00:29N 53°31' E 009°54'0 0.0
2017-Nov-13 23:59N 53°31' E 009°54'0 0.0
2017-Nov-13 23:30N 53°31' E 009°54'0 0.0
2017-Nov-13 23:00N 53°31' E 009°54'0 0.0
2017-Nov-13 22:30N 53°31' E 009°54'0 0.0
2017-Nov-13 21:59N 53°31' E 009°54'33 1.7
2017-Nov-13 01:58N 53°53' E 009°10'0 0.0
2017-Nov-13 01:28N 53°53' E 009°10'0 0.0
2017-Nov-13 00:55N 53°53' E 009°10'0 0.0
2017-Nov-13 00:28N 53°53' E 009°10'0 0.0
2017-Nov-12 23:58N 53°53' E 009°10'0 0.0
2017-Nov-12 23:28N 53°53' E 009°10'0 0.0
2017-Nov-12 22:58N 53°53' E 009°10'0 0.0
2017-Nov-12 22:22N 53°53' E 009°10'0 0.3
2017-Nov-12 21:52N 53°53' E 009°11'0 0.1
2017-Nov-12 21:28N 53°53' E 009°11'0 0.0
2017-Nov-12 20:58N 53°53' E 009°11'0 0.0
2017-Nov-12 20:28N 53°53' E 009°11'0 0.0
2017-Nov-12 19:58N 53°53' E 009°11'0 0.0
2017-Nov-12 19:28N 53°53' E 009°11'0 0.0
2017-Nov-12 18:58N 53°53' E 009°11'0 0.0
2017-Nov-12 18:28N 53°53' E 009°11'0 0.0
2017-Nov-12 17:58N 53°53' E 009°11'0 0.0
2017-Nov-12 17:28N 53°53' E 009°11'0 0.0
2017-Nov-12 16:58N 53°53' E 009°11'0 0.0
2017-Nov-12 16:28N 53°53' E 009°11'0 0.1
2017-Nov-12 15:58N 53°53' E 009°11'0 0.2
2017-Nov-12 15:28N 53°53' E 009°10'0 0.0
2017-Nov-12 14:58N 53°53' E 009°10'0 0.0
2017-Nov-12 14:25N 53°53' E 009°10'0 0.0
2017-Nov-12 13:58N 53°53' E 009°10'0 0.0
2017-Nov-12 13:25N 53°53' E 009°10'0 0.0
2017-Nov-12 12:52N 53°53' E 009°10'0 0.0
2017-Nov-12 12:28N 53°53' E 009°10'0 0.0
2017-Nov-12 11:55N 53°53' E 009°10'0 0.0
2017-Nov-12 11:28N 53°53' E 009°10'0 0.0
2017-Nov-12 10:58N 53°53' E 009°10'0 0.0
2017-Nov-12 10:28N 53°53' E 009°10'0 0.0
2017-Nov-12 09:58N 53°53' E 009°10'0 0.0
2017-Nov-12 09:28N 53°53' E 009°10'0 0.1
2017-Nov-12 08:58N 53°53' E 009°10'0 0.2
2017-Nov-12 08:19N 53°53' E 009°11'0 0.0
2017-Nov-12 07:49N 53°53' E 009°11'0 0.1
2017-Nov-12 07:28N 53°53' E 009°11'0 0.0
2017-Nov-12 06:52N 53°53' E 009°11'0 0.0
2017-Nov-12 06:28N 53°53' E 009°11'0 0.0
2017-Nov-12 05:55N 53°53' E 009°11'0 0.0
2017-Nov-12 05:28N 53°53' E 009°11'0 0.0
2017-Nov-12 04:55N 53°53' E 009°11'0 0.0
2017-Nov-12 04:28N 53°53' E 009°11'0 0.0
2017-Nov-12 03:58N 53°53' E 009°11'0 0.0
2017-Nov-12 03:28N 53°53' E 009°11'0 0.0
2017-Nov-12 02:58N 53°53' E 009°11'0 0.2
2017-Nov-12 02:28N 53°53' E 009°10'0 0.2
2017-Nov-12 01:58N 53°53' E 009°10'0 0.0
2017-Nov-12 01:28N 53°53' E 009°10'0 0.0
2017-Nov-12 00:55N 53°53' E 009°10'0 0.0
2017-Nov-12 00:25N 53°53' E 009°10'0 0.0
2017-Nov-11 23:58N 53°53' E 009°10'0 0.0
2017-Nov-11 23:22N 53°53' E 009°10'0 0.0
2017-Nov-11 22:58N 53°53' E 009°10'0 0.1
2017-Nov-11 22:22N 53°53' E 009°10'0 0.0
2017-Nov-11 21:58N 53°53' E 009°10'0 0.1
2017-Nov-11 21:28N 53°53' E 009°10'0 0.2
2017-Nov-11 20:58N 53°53' E 009°11'0 0.2
2017-Nov-11 20:28N 53°53' E 009°11'0 0.0
2017-Nov-11 19:58N 53°53' E 009°11'0 0.0
2017-Nov-11 19:28N 53°53' E 009°11'0 0.0
2017-Nov-11 18:58N 53°53' E 009°11'0 0.0
2017-Nov-11 18:28N 53°53' E 009°11'0 0.0
2017-Nov-11 17:55N 53°53' E 009°11'0 0.0
2017-Nov-11 17:28N 53°53' E 009°11'0 0.0
2017-Nov-11 16:58N 53°53' E 009°11'0 0.0
2017-Nov-11 16:25N 53°53' E 009°11'0 0.0
2017-Nov-11 15:58N 53°53' E 009°11'0 0.0
2017-Nov-11 15:28N 53°53' E 009°11'0 0.0
2017-Nov-11 14:58N 53°53' E 009°11'0 0.0
2017-Nov-11 14:28N 53°53' E 009°11'0 0.2
2017-Nov-11 13:55N 53°53' E 009°10'0 0.1
2017-Nov-11 13:28N 53°53' E 009°10'0 0.0
2017-Nov-11 12:58N 53°53' E 009°10'0 0.0
2017-Nov-11 12:13N 53°53' E 009°10'0 0.0
2017-Nov-11 11:55N 53°53' E 009°10'0 0.1
2017-Nov-11 11:28N 53°53' E 009°10'0 0.0
2017-Nov-11 10:58N 53°53' E 009°10'0 0.0
2017-Nov-11 10:28N 53°53' E 009°10'0 0.0
2017-Nov-11 09:55N 53°53' E 009°10'0 0.0
2017-Nov-11 09:25N 53°53' E 009°10'0 0.0
2017-Nov-11 08:58N 53°53' E 009°10'0 0.0
2017-Nov-11 08:28N 53°53' E 009°10'0 0.2
2017-Nov-11 07:52N 53°53' E 009°10'0 0.1
2017-Nov-11 07:16N 53°53' E 009°11'0 0.1
2017-Nov-11 06:58N 53°53' E 009°11'0 0.1
2017-Nov-11 06:28N 53°53' E 009°11'0 0.0
2017-Nov-11 06:00N 53°53' E 009°11'0 0.0
2017-Nov-11 05:31N 53°53' E 009°11'0 0.0
2017-Nov-11 05:00N 53°53' E 009°11'0 0.0
2017-Nov-11 04:30N 53°53' E 009°11'0 0.1
2017-Nov-11 04:00N 53°53' E 009°11'2 3.2
2017-Nov-11 03:31N 53°53' E 009°08'713.0
2017-Nov-11 03:00N 53°51' E 008°57'612.6
2017-Nov-11 02:30N 53°51' E 008°47'612.4
2017-Nov-11 02:00N 53°55' E 008°40'811.7
2017-Nov-11 01:21N 53°59' E 008°28'156 9.0
2017-Nov-10 08:02N 53°02' E 004°23'011.1
2017-Nov-10 08:00N 53°01' E 004°23'611.0
2017-Nov-10 07:29N 52°56' E 004°19'511.0
2017-Nov-10 07:00N 52°51' E 004°16'611.1
2017-Nov-10 06:29N 52°46' E 004°11'3910.0
2017-Nov-10 02:34N 52°08' E 003°55'110.2
2017-Nov-10 02:29N 52°08' E 003°55'4 9.0
2017-Nov-10 02:00N 52°03' E 003°54'3 6.6
2017-Nov-10 01:30N 52°01' E 003°58'611.5
2017-Nov-10 01:00N 51°59' E 004°07'612.4
2017-Nov-10 00:30N 51°55' E 004°15'5 9.9
2017-Nov-10 00:00N 51°51' E 004°21'510.0
2017-Nov-09 23:30N 51°50' E 004°28'5 8.9
2017-Nov-09 23:00N 51°48' E 004°35'4 8.1
2017-Nov-09 22:30N 51°45' E 004°38'3 4.7
2017-Nov-09 21:49N 51°42' E 004°36'0 0.0
2017-Nov-09 21:19N 51°42' E 004°36'0 0.0
2017-Nov-09 20:49N 51°42' E 004°36'0 0.0
2017-Nov-09 20:13N 51°42' E 004°36'0 0.0
2017-Nov-09 17:55N 51°42' E 004°36'0 0.0
2017-Nov-09 17:19N 51°42' E 004°36'0 0.0
2017-Nov-09 11:34N 51°42' E 004°36'0 0.0
2017-Nov-09 11:16N 51°42' E 004°36'0 0.0
2017-Nov-09 10:58N 51°42' E 004°36'0 0.0
2017-Nov-09 09:43N 51°42' E 004°36'0 0.0
2017-Nov-09 09:19N 51°42' E 004°36'0 0.0
2017-Nov-09 08:55N 51°42' E 004°36'0 0.0
2017-Nov-09 06:07N 51°42' E 004°36'0 0.0
2017-Nov-09 05:43N 51°42' E 004°36'0 0.0
2017-Nov-09 05:25N 51°42' E 004°36'0 0.0
2017-Nov-09 04:55N 51°42' E 004°36'0 0.0
2017-Nov-09 04:19N 51°42' E 004°36'0 0.0
2017-Nov-09 03:43N 51°42' E 004°36'0 0.0
2017-Nov-09 03:01N 51°42' E 004°36'0 0.1
2017-Nov-09 02:55N 51°42' E 004°36'0 0.0
2017-Nov-09 01:49N 51°42' E 004°36'0 0.0
2017-Nov-09 01:25N 51°42' E 004°36'0 0.0
2017-Nov-09 00:58N 51°42' E 004°36'0 0.0
2017-Nov-09 00:25N 51°42' E 004°36'0 0.0
2017-Nov-08 23:55N 51°42' E 004°36'0 0.0
2017-Nov-08 23:28N 51°42' E 004°36'  
Track history (hours):
 
Tides and Currents Weather Stations Pressure Air Temp Water Temp Dewpoint Dewpoint Depression Visibility Wind Speed Wind Dir Waves Ship Positions

Frontera

Last reported at 2017-Nov-18 23:14 UTC. Time now 2017-Nov-21 06:27 UTC.
Position N 47°22' W 007°01'.

Length 106 m; draft 6.4 m.

Type: Cargo ship. MMSI: 305995000.

Date/timePositionNaut miles runAvg speedWind from/ knotsBaromVisibWave heightAir tempDewpointWater temp
2017-Nov-18 23:14N 47°22' W 007°01'310.1
2017-Nov-18 22:59N 47°24' W 006°59'610.5
2017-Nov-18 22:24N 47°30' W 006°55'910.9
2017-Nov-18 21:31N 47°38' W 006°48'010.8
2017-Nov-18 21:30N 47°38' W 006°48'611.2
2017-Nov-18 20:58N 47°43' W 006°44'511.1
2017-Nov-18 20:29N 47°48' W 006°39'611.2
2017-Nov-18 19:57N 47°53' W 006°35'511.2
2017-Nov-18 19:30N 47°57' W 006°31'610.9
2017-Nov-18 18:56N 48°03' W 006°27'510.7
2017-Nov-18 18:30N 48°07' W 006°23'40 9.2
2017-Nov-18 14:06N 48°43' W 005°55'4 8.6
2017-Nov-18 13:37N 48°46' W 005°52'2 8.9
2017-Nov-18 13:26N 48°48' W 005°51'6 9.1
2017-Nov-18 12:47N 48°53' W 005°47'1910.3
2017-Nov-18 10:55N 49°03' W 005°22'1211.4
2017-Nov-18 09:50N 49°09' W 005°06'911.4
2017-Nov-18 09:02N 49°14' W 004°53'1910.7
2017-Nov-18 07:17N 49°23' W 004°29'8 9.5
2017-Nov-18 06:26N 49°27' W 004°18'105 9.7
2017-Nov-17 19:37N 50°10' W 001°50'1 6.8
2017-Nov-17 19:27N 50°10' W 001°48'3 6.5
2017-Nov-17 19:00N 50°11' W 001°44'3 6.7
2017-Nov-17 18:30N 50°12' W 001°39'4 7.2
2017-Nov-17 17:59N 50°13' W 001°33'9310.9
2017-Nov-17 09:28N 50°42' E 000°46'1210.4
2017-Nov-17 08:20N 50°48' E 001°02'1511.1
2017-Nov-17 06:58N 50°57' E 001°21'613.7
2017-Nov-17 06:30N 51°01' E 001°28'813.8
2017-Nov-17 05:53N 51°07' E 001°38'513.2
2017-Nov-17 05:30N 51°11' E 001°43'612.6
2017-Nov-17 05:00N 51°16' E 001°50'611.5
2017-Nov-17 04:29N 51°21' E 001°55'510.8
2017-Nov-17 03:59N 51°25' E 001°59'510.1
2017-Nov-17 03:29N 51°29' E 002°04'5 9.6
2017-Nov-17 03:00N 51°33' E 002°09'5 9.3
2017-Nov-17 02:30N 51°36' E 002°14'249 9.2
2017-Nov-15 23:18N 54°02' E 007°50'310.2
2017-Nov-15 23:01N 54°01' E 007°55'510.1
2017-Nov-15 22:30N 54°01' E 008°03'5 9.8
2017-Nov-15 22:00N 54°00' E 008°12'4 8.4
2017-Nov-15 21:30N 53°60' E 008°19'5 9.1
2017-Nov-15 21:01N 53°59' E 008°26'4 8.0
2017-Nov-15 20:30N 53°58' E 008°33'4 7.1
2017-Nov-15 20:00N 53°57' E 008°39'3 6.6
2017-Nov-15 19:30N 53°54' E 008°42'4 7.5
2017-Nov-15 19:00N 53°51' E 008°46'4 9.1
2017-Nov-15 18:30N 53°51' E 008°53'510.6
2017-Nov-15 18:00N 53°52' E 009°02'510.9
2017-Nov-15 17:30N 53°53' E 009°11'611.3
2017-Nov-15 17:01N 53°51' E 009°20'612.5
2017-Nov-15 16:31N 53°45' E 009°25'611.8
2017-Nov-15 16:01N 53°40' E 009°31'612.0
2017-Nov-15 15:31N 53°35' E 009°37'612.3
2017-Nov-15 15:01N 53°34' E 009°46'4 9.0
2017-Nov-15 14:31N 53°32' E 009°53'1 1.0
2017-Nov-15 14:00N 53°31' E 009°54'0 0.3
2017-Nov-15 13:30N 53°31' E 009°54'0 0.0
2017-Nov-15 13:00N 53°31' E 009°54'0 0.0
2017-Nov-15 12:30N 53°31' E 009°54'0 0.0
2017-Nov-15 12:00N 53°31' E 009°54'0 0.0
2017-Nov-15 11:30N 53°31' E 009°54'0 0.0
2017-Nov-15 11:00N 53°31' E 009°54'0 0.0
2017-Nov-15 10:30N 53°31' E 009°54'0 0.0
2017-Nov-15 10:00N 53°31' E 009°54'0 0.0
2017-Nov-15 09:30N 53°31' E 009°54'0 0.0
2017-Nov-15 09:00N 53°31' E 009°54'0 0.0
2017-Nov-15 08:30N 53°31' E 009°54'0 0.0
2017-Nov-15 08:00N 53°31' E 009°54'0 0.0
2017-Nov-15 07:27N 53°31' E 009°54'0 0.0
2017-Nov-15 07:00N 53°31' E 009°54'0 0.0
2017-Nov-15 06:30N 53°31' E 009°54'0 0.0
2017-Nov-15 06:00N 53°31' E 009°54'0 0.0
2017-Nov-15 05:30N 53°31' E 009°54'0 0.0
2017-Nov-15 05:00N 53°31' E 009°54'0 0.0
2017-Nov-15 04:30N 53°31' E 009°54'0 0.0
2017-Nov-15 04:00N 53°31' E 009°54'0 0.0
2017-Nov-15 03:30N 53°31' E 009°54'0 0.0
2017-Nov-15 03:00N 53°31' E 009°54'0 0.0
2017-Nov-15 02:30N 53°31' E 009°54'0 0.0
2017-Nov-15 02:00N 53°31' E 009°54'0 0.0
2017-Nov-15 01:30N 53°31' E 009°54'0 0.0
2017-Nov-15 01:00N 53°31' E 009°54'0 0.0
2017-Nov-15 00:30N 53°31' E 009°54'0 0.0
2017-Nov-15 00:00N 53°31' E 009°54'0 0.0
2017-Nov-14 23:30N 53°31' E 009°54'0 0.0
2017-Nov-14 23:00N 53°31' E 009°54'0 0.0
2017-Nov-14 22:30N 53°31' E 009°54'0 0.0
2017-Nov-14 22:00N 53°31' E 009°54'0 0.0
2017-Nov-14 21:30N 53°31' E 009°54'0 0.0
2017-Nov-14 21:00N 53°31' E 009°54'0 0.0
2017-Nov-14 20:30N 53°31' E 009°54'0 0.0
2017-Nov-14 20:00N 53°31' E 009°54'0 0.0
2017-Nov-14 19:30N 53°31' E 009°54'0 0.0
2017-Nov-14 19:00N 53°31' E 009°54'0 0.0
2017-Nov-14 18:30N 53°31' E 009°54'0 0.0
2017-Nov-14 18:00N 53°31' E 009°54'0 0.0
2017-Nov-14 17:30N 53°31' E 009°54'0 0.0
2017-Nov-14 17:00N 53°31' E 009°54'0 0.0
2017-Nov-14 16:30N 53°31' E 009°54'0 0.0
2017-Nov-14 16:00N 53°31' E 009°54'0 0.0
2017-Nov-14 15:30N 53°31' E 009°54'0 0.0
2017-Nov-14 15:00N 53°31' E 009°54'0 0.0
2017-Nov-14 14:30N 53°31' E 009°54'0 0.0
2017-Nov-14 14:00N 53°31' E 009°54'0 0.0
2017-Nov-14 13:30N 53°31' E 009°54'0 0.0
2017-Nov-14 13:00N 53°31' E 009°54'0 0.0
2017-Nov-14 12:30N 53°31' E 009°54'0 0.0
2017-Nov-14 12:00N 53°31' E 009°54'0 0.0
2017-Nov-14 11:30N 53°31' E 009°54'0 0.0
2017-Nov-14 11:00N 53°31' E 009°54'0 0.0
2017-Nov-14 10:30N 53°31' E 009°54'0 0.0
2017-Nov-14 10:00N 53°31' E 009°54'0 0.0
2017-Nov-14 09:30N 53°31' E 009°54'0 0.0
2017-Nov-14 09:00N 53°31' E 009°54'0 0.0
2017-Nov-14 08:30N 53°31' E 009°54'0 0.0
2017-Nov-14 08:00N 53°31' E 009°54'0 0.0
2017-Nov-14 07:30N 53°31' E 009°54'0 0.0
2017-Nov-14 07:00N 53°31' E 009°54'0 0.0
2017-Nov-14 06:29N 53°31' E 009°54'0 0.0
2017-Nov-14 06:00N 53°31' E 009°54'0 0.0
2017-Nov-14 05:29N 53°31' E 009°54'0 0.0
2017-Nov-14 05:00N 53°31' E 009°54'0 0.0
2017-Nov-14 04:29N 53°31' E 009°54'0 0.0
2017-Nov-14 03:59N 53°31' E 009°54'0 0.0
2017-Nov-14 03:30N 53°31' E 009°54'0 0.0
2017-Nov-14 02:59N 53°31' E 009°54'0 0.0
2017-Nov-14 02:30N 53°31' E 009°54'0 0.0
2017-Nov-14 01:59N 53°31' E 009°54'0 0.0
2017-Nov-14 01:30N 53°31' E 009°54'0 0.0
2017-Nov-14 00:59N 53°31' E 009°54'0 0.0
2017-Nov-14 00:29N 53°31' E 009°54'0 0.0
2017-Nov-13 23:59N 53°31' E 009°54'0 0.0
2017-Nov-13 23:30N 53°31' E 009°54'0 0.0
2017-Nov-13 23:00N 53°31' E 009°54'0 0.0
2017-Nov-13 22:30N 53°31' E 009°54'0 0.0
2017-Nov-13 21:59N 53°31' E 009°54'33 1.7
2017-Nov-13 01:58N 53°53' E 009°10'0 0.0
2017-Nov-13 01:28N 53°53' E 009°10'0 0.0
2017-Nov-13 00:55N 53°53' E 009°10'0 0.0
2017-Nov-13 00:28N 53°53' E 009°10'0 0.0
2017-Nov-12 23:58N 53°53' E 009°10'0 0.0
2017-Nov-12 23:28N 53°53' E 009°10'0 0.0
2017-Nov-12 22:58N 53°53' E 009°10'0 0.0
2017-Nov-12 22:22N 53°53' E 009°10'0 0.3
2017-Nov-12 21:52N 53°53' E 009°11'0 0.1
2017-Nov-12 21:28N 53°53' E 009°11'0 0.0
2017-Nov-12 20:58N 53°53' E 009°11'0 0.0
2017-Nov-12 20:28N 53°53' E 009°11'0 0.0
2017-Nov-12 19:58N 53°53' E 009°11'0 0.0
2017-Nov-12 19:28N 53°53' E 009°11'0 0.0
2017-Nov-12 18:58N 53°53' E 009°11'0 0.0
2017-Nov-12 18:28N 53°53' E 009°11'0 0.0
2017-Nov-12 17:58N 53°53' E 009°11'0 0.0
2017-Nov-12 17:28N 53°53' E 009°11'0 0.0
2017-Nov-12 16:58N 53°53' E 009°11'0 0.0
2017-Nov-12 16:28N 53°53' E 009°11'0 0.1
2017-Nov-12 15:58N 53°53' E 009°11'0 0.2
2017-Nov-12 15:28N 53°53' E 009°10'0 0.0
2017-Nov-12 14:58N 53°53' E 009°10'0 0.0
2017-Nov-12 14:25N 53°53' E 009°10'0 0.0
2017-Nov-12 13:58N 53°53' E 009°10'0 0.0
2017-Nov-12 13:25N 53°53' E 009°10'0 0.0
2017-Nov-12 12:52N 53°53' E 009°10'0 0.0
2017-Nov-12 12:28N 53°53' E 009°10'0 0.0
2017-Nov-12 11:55N 53°53' E 009°10'0 0.0
2017-Nov-12 11:28N 53°53' E 009°10'0 0.0
2017-Nov-12 10:58N 53°53' E 009°10'0 0.0
2017-Nov-12 10:28N 53°53' E 009°10'0 0.0
2017-Nov-12 09:58N 53°53' E 009°10'0 0.0
2017-Nov-12 09:28N 53°53' E 009°10'0 0.1
2017-Nov-12 08:58N 53°53' E 009°10'0 0.2
2017-Nov-12 08:19N 53°53' E 009°11'0 0.0
2017-Nov-12 07:49N 53°53' E 009°11'0 0.1
2017-Nov-12 07:28N 53°53' E 009°11'0 0.0
2017-Nov-12 06:52N 53°53' E 009°11'0 0.0
2017-Nov-12 06:28N 53°53' E 009°11'0 0.0
2017-Nov-12 05:55N 53°53' E 009°11'0 0.0
2017-Nov-12 05:28N 53°53' E 009°11'0 0.0
2017-Nov-12 04:55N 53°53' E 009°11'0 0.0
2017-Nov-12 04:28N 53°53' E 009°11'0 0.0
2017-Nov-12 03:58N 53°53' E 009°11'0 0.0
2017-Nov-12 03:28N 53°53' E 009°11'0 0.0
2017-Nov-12 02:58N 53°53' E 009°11'0 0.2
2017-Nov-12 02:28N 53°53' E 009°10'0 0.2
2017-Nov-12 01:58N 53°53' E 009°10'0 0.0
2017-Nov-12 01:28N 53°53' E 009°10'0 0.0
2017-Nov-12 00:55N 53°53' E 009°10'0 0.0
2017-Nov-12 00:25N 53°53' E 009°10'0 0.0
2017-Nov-11 23:58N 53°53' E 009°10'0 0.0
2017-Nov-11 23:22N 53°53' E 009°10'0 0.0
2017-Nov-11 22:58N 53°53' E 009°10'0 0.1
2017-Nov-11 22:22N 53°53' E 009°10'0 0.0
2017-Nov-11 21:58N 53°53' E 009°10'0 0.1
2017-Nov-11 21:28N 53°53' E 009°10'0 0.2
2017-Nov-11 20:58N 53°53' E 009°11'0 0.2
2017-Nov-11 20:28N 53°53' E 009°11'0 0.0
2017-Nov-11 19:58N 53°53' E 009°11'0 0.0
2017-Nov-11 19:28N 53°53' E 009°11'0 0.0
2017-Nov-11 18:58N 53°53' E 009°11'0 0.0
2017-Nov-11 18:28N 53°53' E 009°11'0 0.0
2017-Nov-11 17:55N 53°53' E 009°11'0 0.0
2017-Nov-11 17:28N 53°53' E 009°11'0 0.0
2017-Nov-11 16:58N 53°53' E 009°11'0 0.0
2017-Nov-11 16:25N 53°53' E 009°11'0 0.0
2017-Nov-11 15:58N 53°53' E 009°11'0 0.0
2017-Nov-11 15:28N 53°53' E 009°11'0 0.0
2017-Nov-11 14:58N 53°53' E 009°11'0 0.0
2017-Nov-11 14:28N 53°53' E 009°11'0 0.2
2017-Nov-11 13:55N 53°53' E 009°10'0 0.1
2017-Nov-11 13:28N 53°53' E 009°10'0 0.0
2017-Nov-11 12:58N 53°53' E 009°10'0 0.0
2017-Nov-11 12:13N 53°53' E 009°10'0 0.0
2017-Nov-11 11:55N 53°53' E 009°10'0 0.1
2017-Nov-11 11:28N 53°53' E 009°10'0 0.0
2017-Nov-11 10:58N 53°53' E 009°10'0 0.0
2017-Nov-11 10:28N 53°53' E 009°10'0 0.0
2017-Nov-11 09:55N 53°53' E 009°10'0 0.0
2017-Nov-11 09:25N 53°53' E 009°10'0 0.0
2017-Nov-11 08:58N 53°53' E 009°10'0 0.0
2017-Nov-11 08:28N 53°53' E 009°10'0 0.2
2017-Nov-11 07:52N 53°53' E 009°10'0 0.1
2017-Nov-11 07:16N 53°53' E 009°11'0 0.1
2017-Nov-11 06:58N 53°53' E 009°11'0 0.1
2017-Nov-11 06:28N 53°53' E 009°11'0 0.0
2017-Nov-11 06:00N 53°53' E 009°11'0 0.0
2017-Nov-11 05:31N 53°53' E 009°11'0 0.0
2017-Nov-11 05:00N 53°53' E 009°11'0 0.0
2017-Nov-11 04:30N 53°53' E 009°11'0 0.1
2017-Nov-11 04:00N 53°53' E 009°11'2 3.2
2017-Nov-11 03:31N 53°53' E 009°08'713.0
2017-Nov-11 03:00N 53°51' E 008°57'612.6
2017-Nov-11 02:30N 53°51' E 008°47'612.4
2017-Nov-11 02:00N 53°55' E 008°40'811.7
2017-Nov-11 01:21N 53°59' E 008°28'156 9.0
2017-Nov-10 08:02N 53°02' E 004°23'011.1
2017-Nov-10 08:00N 53°01' E 004°23'611.0
2017-Nov-10 07:29N 52°56' E 004°19'511.0
2017-Nov-10 07:00N 52°51' E 004°16'611.1
2017-Nov-10 06:29N 52°46' E 004°11'3910.0
2017-Nov-10 02:34N 52°08' E 003°55'110.2
2017-Nov-10 02:29N 52°08' E 003°55'4 9.0
2017-Nov-10 02:00N 52°03' E 003°54'3 6.6
2017-Nov-10 01:30N 52°01' E 003°58'611.5
2017-Nov-10 01:00N 51°59' E 004°07'612.4
2017-Nov-10 00:30N 51°55' E 004°15'5 9.9
2017-Nov-10 00:00N 51°51' E 004°21'510.0
2017-Nov-09 23:30N 51°50' E 004°28'5 8.9
2017-Nov-09 23:00N 51°48' E 004°35'4 8.1
2017-Nov-09 22:30N 51°45' E 004°38'3 4.7
2017-Nov-09 21:49N 51°42' E 004°36'0 0.0
2017-Nov-09 21:19N 51°42' E 004°36'0 0.0
2017-Nov-09 20:49N 51°42' E 004°36'0 0.0
2017-Nov-09 20:13N 51°42' E 004°36'0 0.0
2017-Nov-09 17:55N 51°42' E 004°36'0 0.0
2017-Nov-09 17:19N 51°42' E 004°36'0 0.0
2017-Nov-09 11:34N 51°42' E 004°36'0 0.0
2017-Nov-09 11:16N 51°42' E 004°36'0 0.0
2017-Nov-09 10:58N 51°42' E 004°36'0 0.0
2017-Nov-09 09:43N 51°42' E 004°36'0 0.0
2017-Nov-09 09:19N 51°42' E 004°36'0 0.0
2017-Nov-09 08:55N 51°42' E 004°36'0 0.0
2017-Nov-09 06:07N 51°42' E 004°36'0 0.0
2017-Nov-09 05:43N 51°42' E 004°36'0 0.0
2017-Nov-09 05:25N 51°42' E 004°36'0 0.0
2017-Nov-09 04:55N 51°42' E 004°36'0 0.0
2017-Nov-09 04:19N 51°42' E 004°36'0 0.0
2017-Nov-09 03:43N 51°42' E 004°36'0 0.0
2017-Nov-09 03:01N 51°42' E 004°36'0 0.1
2017-Nov-09 02:55N 51°42' E 004°36'0 0.0
2017-Nov-09 01:49N 51°42' E 004°36'0 0.0
2017-Nov-09 01:25N 51°42' E 004°36'0 0.0
2017-Nov-09 00:58N 51°42' E 004°36'0 0.0
2017-Nov-09 00:25N 51°42' E 004°36'0 0.0
2017-Nov-08 23:55N 51°42' E 004°36'0 0.0
2017-Nov-08 23:28N 51°42' E 004°36'  

Dump ship's entire track history